createdAt,value
2022-09-20T00:01:26.117Z,49.62
2022-09-20T00:03:56.064Z,49.64
2022-09-20T00:06:26.383Z,49.68
2022-09-20T00:08:57.612Z,49.57
2022-09-20T00:11:30.054Z,49.64
2022-09-20T00:14:00.169Z,49.60
2022-09-20T00:16:31.669Z,49.76
2022-09-20T00:19:03.762Z,49.70
2022-09-20T00:21:33.493Z,49.62
2022-09-20T00:24:01.742Z,49.81
2022-09-20T00:26:30.180Z,49.54
2022-09-20T00:29:00.245Z,49.61
2022-09-20T00:31:29.552Z,49.60
2022-09-20T00:34:17.816Z,49.52
2022-09-20T00:36:46.012Z,49.62
2022-09-20T00:39:15.811Z,49.50
2022-09-20T00:41:44.506Z,49.70
2022-09-20T00:44:51.039Z,49.54
2022-09-20T00:47:27.467Z,49.63
2022-09-20T00:50:01.033Z,49.38
2022-09-20T00:52:30.518Z,49.50
2022-09-20T00:54:59.452Z,49.63
2022-09-20T00:57:27.756Z,49.68
2022-09-20T00:59:55.986Z,49.65
2022-09-20T01:02:28.882Z,49.63
2022-09-20T01:04:57.873Z,49.78
2022-09-20T01:07:27.183Z,49.55
2022-09-20T01:09:55.187Z,49.52
2022-09-20T01:16:18.627Z,49.54
2022-09-20T01:18:50.297Z,49.53
2022-09-20T01:21:21.198Z,49.66
2022-09-20T01:23:58.474Z,49.90
2022-09-20T01:26:54.756Z,49.61
2022-09-20T01:29:54.101Z,49.68
2022-09-20T01:32:29.853Z,49.67
2022-09-20T01:35:02.427Z,49.76
2022-09-20T01:37:43.295Z,49.72
2022-09-20T01:40:21.942Z,49.34
2022-09-20T01:42:59.746Z,49.67
2022-09-20T01:45:33.204Z,49.50
2022-09-20T01:48:13.489Z,49.68
2022-09-20T01:51:00.421Z,49.40
2022-09-20T01:53:53.530Z,49.63
2022-09-20T01:57:00.383Z,49.76
2022-09-20T01:59:51.117Z,49.72
2022-09-20T02:02:49.738Z,49.55
2022-09-20T02:05:44.488Z,49.60
2022-09-20T02:08:39.977Z,49.72
2022-09-20T02:11:14.810Z,49.51
2022-09-20T02:14:06.381Z,49.66
2022-09-20T02:16:46.297Z,49.58
2022-09-20T02:19:45.408Z,49.42
2022-09-20T02:22:37.844Z,49.50
2022-09-20T02:25:24.450Z,49.63
2022-09-20T02:28:07.400Z,49.47
2022-09-20T02:30:45.957Z,49.59
2022-09-20T02:33:40.244Z,49.58
2022-09-20T02:36:27.232Z,49.77
2022-09-20T02:39:03.911Z,49.62
2022-09-20T02:42:02.546Z,49.53
2022-09-20T02:44:44.669Z,49.79
2022-09-20T02:47:21.968Z,49.57
2022-09-20T02:50:07.508Z,49.69
2022-09-20T02:52:47.175Z,49.57
2022-09-20T02:55:19.166Z,49.57
2022-09-20T02:57:51.823Z,49.77
2022-09-20T03:00:23.767Z,49.54
2022-09-20T03:03:07.417Z,49.58
2022-09-20T03:05:47.453Z,49.52
2022-09-20T03:08:34.449Z,49.54
2022-09-20T03:11:14.136Z,49.63
2022-09-20T03:14:00.841Z,49.65
2022-09-20T03:16:36.066Z,49.68
2022-09-20T03:19:21.671Z,49.78
2022-09-20T03:22:06.798Z,49.70
2022-09-20T03:24:44.926Z,49.74
2022-09-20T03:27:21.091Z,49.75
2022-09-20T03:30:03.940Z,49.50
2022-09-20T03:32:45.886Z,49.66
2022-09-20T03:35:30.661Z,49.72
2022-09-20T03:38:16.093Z,49.74
2022-09-20T03:41:19.045Z,49.74
2022-09-20T03:43:57.968Z,49.66
2022-09-20T03:46:28.395Z,49.76
2022-09-20T03:49:48.058Z,49.73
2022-09-20T03:52:36.744Z,49.56
2022-09-20T03:55:27.748Z,49.77
2022-09-20T03:58:11.893Z,49.82
2022-09-20T04:00:57.677Z,49.79
2022-09-20T04:03:35.532Z,49.44
2022-09-20T04:06:24.086Z,49.85
2022-09-20T04:09:07.288Z,49.74
2022-09-20T04:11:44.245Z,49.84
2022-09-20T04:14:21.919Z,49.87
2022-09-20T04:16:56.771Z,49.99
2022-09-20T04:19:32.893Z,49.65
2022-09-20T04:22:03.217Z,49.79
2022-09-20T04:24:41.912Z,49.80
2022-09-20T04:27:18.776Z,49.75
2022-09-20T04:29:54.685Z,49.72
2022-09-20T04:32:30.008Z,49.79
2022-09-20T04:35:21.730Z,49.80
2022-09-20T04:37:52.822Z,49.80
2022-09-20T04:40:33.517Z,49.88
2022-09-20T04:43:48.051Z,49.37
2022-09-20T04:47:02.847Z,49.62
2022-09-20T04:50:18.093Z,49.50
2022-09-20T04:53:09.330Z,49.62
2022-09-20T04:55:57.502Z,49.98
2022-09-20T04:58:49.282Z,50.56
2022-09-20T05:01:50.500Z,50.39
2022-09-20T05:05:09.896Z,50.43
2022-09-20T05:08:10.908Z,50.50
2022-09-20T05:11:09.171Z,50.52
2022-09-20T05:13:56.339Z,50.57
2022-09-20T05:16:33.013Z,50.66
2022-09-20T05:19:27.656Z,50.47
2022-09-20T05:22:25.117Z,50.48
2022-09-20T05:25:08.796Z,50.46
2022-09-20T05:27:44.810Z,50.62
2022-09-20T05:30:34.597Z,50.45
2022-09-20T05:33:15.111Z,50.27
2022-09-20T05:35:53.607Z,50.40
2022-09-20T05:38:35.493Z,50.20
2022-09-20T05:41:14.034Z,50.20
2022-09-20T05:43:53.794Z,50.40
2022-09-20T05:46:34.824Z,50.54
2022-09-20T05:49:13.474Z,50.34
2022-09-20T05:51:55.941Z,50.20
2022-09-20T05:54:43.773Z,50.42
2022-09-20T05:57:20.460Z,50.40
2022-09-20T06:00:00.561Z,50.47
2022-09-20T06:02:44.634Z,50.42
2022-09-20T06:05:16.893Z,50.29
2022-09-20T06:08:03.723Z,50.38
2022-09-20T06:11:01.246Z,50.29
2022-09-20T06:14:03.630Z,50.22
2022-09-20T06:16:43.177Z,50.43
2022-09-20T06:19:20.342Z,50.44
2022-09-20T06:21:53.363Z,50.82
2022-09-20T06:24:37.037Z,50.24
2022-09-20T06:27:14.311Z,50.15
2022-09-20T06:29:49.085Z,50.96
2022-09-20T06:32:18.625Z,50.66
2022-09-20T06:34:47.660Z,50.71
2022-09-20T06:37:49.203Z,50.67
2022-09-20T06:40:52.079Z,50.86
2022-09-20T06:43:21.438Z,50.81
2022-09-20T06:45:49.576Z,50.85
2022-09-20T06:48:19.290Z,50.63
2022-09-20T06:50:47.260Z,50.72
2022-09-20T06:53:18.746Z,50.87
2022-09-20T06:55:47.673Z,50.86
2022-09-20T06:58:15.557Z,50.74
2022-09-20T07:00:44.980Z,50.54
2022-09-20T07:03:15.087Z,50.86
2022-09-20T07:05:43.046Z,50.59
2022-09-20T07:08:10.918Z,50.60
2022-09-20T07:10:38.852Z,50.52
2022-09-20T07:13:07.147Z,50.66
2022-09-20T07:15:36.161Z,50.71
2022-09-20T07:18:05.448Z,50.64
2022-09-20T07:20:36.176Z,50.75
2022-09-20T07:23:04.166Z,50.71
2022-09-20T07:25:32.916Z,50.41
2022-09-20T07:28:00.931Z,50.59
2022-09-20T07:30:28.928Z,50.52
2022-09-20T07:32:56.825Z,50.55
2022-09-20T07:35:26.114Z,50.45
2022-09-20T07:37:58.501Z,50.32
2022-09-20T07:40:27.370Z,50.68
2022-09-20T07:42:57.527Z,50.72
2022-09-20T07:45:25.651Z,50.48
2022-09-20T07:47:54.618Z,50.52
2022-09-20T07:50:22.646Z,50.76
2022-09-20T07:52:52.174Z,50.56
2022-09-20T07:55:20.127Z,50.76
2022-09-20T07:57:48.304Z,50.63
2022-09-20T08:00:16.463Z,50.65
2022-09-20T08:02:45.485Z,50.75
2022-09-20T08:05:13.510Z,50.98
2022-09-20T08:07:41.437Z,50.07
2022-09-20T08:10:11.241Z,50.02
2022-09-20T08:15:27.105Z,50.04
2022-09-20T08:17:55.098Z,50.05
2022-09-20T08:20:23.227Z,50.27
2022-09-20T08:23:19.371Z,50.37
2022-09-20T08:25:44.649Z,50.48
2022-09-20T08:28:12.572Z,50.55
2022-09-20T08:30:40.456Z,50.56
2022-09-20T08:33:08.310Z,50.55
2022-09-20T08:35:38.393Z,50.67
2022-09-20T08:41:03.348Z,50.64
2022-09-20T08:43:37.121Z,50.59
2022-09-20T08:46:08.292Z,50.58
2022-09-20T08:48:36.361Z,50.70
2022-09-20T08:51:06.221Z,50.50
2022-09-20T08:53:35.132Z,50.73
2022-09-20T08:56:04.792Z,50.60
2022-09-20T08:58:33.084Z,50.84
2022-09-20T09:01:01.481Z,50.70
2022-09-20T09:03:29.580Z,50.76
2022-09-20T09:05:58.177Z,50.72
2022-09-20T09:08:29.389Z,50.61
2022-09-20T09:11:00.125Z,50.64
2022-09-20T09:13:34.525Z,50.71
2022-09-20T09:16:07.400Z,50.40
2022-09-20T09:18:39.025Z,50.46
2022-09-20T09:21:10.497Z,50.42
2022-09-20T09:23:42.456Z,50.24
2022-09-20T09:26:19.640Z,50.29
2022-09-20T09:29:08.385Z,50.82
2022-09-20T09:31:38.484Z,50.49
2022-09-20T09:34:07.030Z,50.71
2022-09-20T09:36:45.247Z,50.93
2022-09-20T09:39:22.738Z,50.98
2022-09-20T09:41:51.144Z,50.84
2022-09-20T09:44:27.637Z,50.89
2022-09-20T09:46:57.031Z,50.78
2022-09-20T09:49:26.986Z,51.29
2022-09-20T09:52:07.725Z,50.72
2022-09-20T09:54:38.256Z,50.82
2022-09-20T09:57:24.751Z,50.58
2022-09-20T10:00:13.475Z,50.84
2022-09-20T10:03:19.084Z,50.88
2022-09-20T10:06:05.007Z,50.68
2022-09-20T10:08:43.412Z,50.56
2022-09-20T10:11:25.947Z,50.63
2022-09-20T10:14:05.449Z,50.59
2022-09-20T10:16:53.176Z,50.61
2022-09-20T10:19:34.325Z,50.58
2022-09-20T10:22:09.698Z,50.47
2022-09-20T10:24:51.000Z,50.49
2022-09-20T10:27:33.189Z,50.74
2022-09-20T10:30:06.182Z,50.42
2022-09-20T10:32:52.195Z,50.37
2022-09-20T10:35:30.422Z,50.55
2022-09-20T10:38:23.568Z,50.44
2022-09-20T10:41:23.715Z,50.37
2022-09-20T10:44:05.893Z,50.24
2022-09-20T10:46:53.029Z,50.44
2022-09-20T10:49:36.333Z,50.49
2022-09-20T10:52:36.821Z,50.29
2022-09-20T10:55:20.475Z,50.52
2022-09-20T10:58:08.647Z,50.02
2022-09-20T11:00:48.648Z,50.39
2022-09-20T11:03:31.244Z,50.31
2022-09-20T11:06:14.333Z,50.10
2022-09-20T11:08:44.928Z,50.26
2022-09-20T11:11:20.946Z,50.24
2022-09-20T11:13:59.016Z,50.07
2022-09-20T11:16:34.142Z,49.98
2022-09-20T11:19:07.502Z,49.86
2022-09-20T11:21:42.948Z,49.93
2022-09-20T11:24:17.762Z,49.74
2022-09-20T11:26:52.465Z,49.90
2022-09-20T11:29:26.051Z,49.90
2022-09-20T11:31:56.290Z,49.96
2022-09-20T11:34:29.776Z,49.73
2022-09-20T11:37:03.239Z,49.74
2022-09-20T11:39:38.450Z,49.48
2022-09-20T11:42:08.260Z,49.58
2022-09-20T11:44:41.212Z,49.60
2022-09-20T11:47:31.293Z,49.66
2022-09-20T11:50:38.397Z,49.70
2022-09-20T11:53:20.832Z,49.78
2022-09-20T11:55:52.962Z,49.74
2022-09-20T11:58:22.455Z,49.71
2022-09-20T12:00:54.258Z,50.09
2022-09-20T12:03:29.024Z,50.26
2022-09-20T12:06:00.072Z,49.84
2022-09-20T12:08:33.535Z,49.79
2022-09-20T12:11:05.363Z,49.26
2022-09-20T12:13:37.611Z,49.04
2022-09-20T12:16:06.667Z,49.23
2022-09-20T12:19:01.248Z,49.00
2022-09-20T12:21:29.406Z,49.08
2022-09-20T12:24:20.918Z,49.09
2022-09-20T12:26:51.259Z,49.28
2022-09-20T12:29:54.520Z,49.45
2022-09-20T12:32:46.157Z,49.46
2022-09-20T12:36:00.134Z,49.29
2022-09-20T12:38:33.181Z,49.42
2022-09-20T12:41:09.479Z,49.42
2022-09-20T12:43:48.381Z,49.83
2022-09-20T12:46:27.932Z,49.78
2022-09-20T12:49:40.267Z,49.90
2022-09-20T12:52:50.373Z,50.13
2022-09-20T12:55:49.793Z,49.76
2022-09-20T12:58:35.945Z,49.78
2022-09-20T13:01:39.690Z,49.75
2022-09-20T13:04:44.730Z,49.69
2022-09-20T13:07:44.778Z,49.66
2022-09-20T13:10:35.944Z,50.41
2022-09-20T13:13:23.153Z,49.98
2022-09-20T13:15:54.907Z,49.89
2022-09-20T13:18:26.419Z,50.09
2022-09-20T13:20:55.902Z,50.16
2022-09-20T13:23:28.251Z,50.09
2022-09-20T13:25:58.149Z,50.25
2022-09-20T13:28:33.500Z,50.07
2022-09-20T13:31:36.098Z,49.84
2022-09-20T13:34:21.767Z,49.58
2022-09-20T13:36:55.973Z,49.60
2022-09-20T13:39:37.390Z,50.04
2022-09-20T13:42:14.807Z,50.06
2022-09-20T13:44:45.469Z,50.03
2022-09-20T13:47:25.462Z,49.81
2022-09-20T13:49:53.703Z,49.85
2022-09-20T13:52:24.695Z,50.11
2022-09-20T13:54:52.692Z,49.99
2022-09-20T13:57:24.259Z,50.01
2022-09-20T13:59:54.136Z,50.00
2022-09-20T14:02:27.423Z,50.15
2022-09-20T14:04:57.759Z,50.06
2022-09-20T14:07:28.076Z,50.21
2022-09-20T14:09:58.933Z,49.78
2022-09-20T14:12:28.571Z,50.11
2022-09-20T14:14:57.026Z,50.24
2022-09-20T14:17:27.168Z,50.14
2022-09-20T14:19:57.612Z,50.00
2022-09-20T14:22:28.285Z,50.10
2022-09-20T14:25:01.372Z,50.10
2022-09-20T14:27:31.290Z,50.11
2022-09-20T14:29:59.762Z,50.04
2022-09-20T14:32:38.212Z,50.08
2022-09-20T14:35:13.572Z,50.36
2022-09-20T14:37:46.203Z,49.91
2022-09-20T14:40:25.614Z,50.26
2022-09-20T14:42:57.532Z,50.07
2022-09-20T14:45:29.841Z,50.13
2022-09-20T14:48:10.111Z,50.12
2022-09-20T14:50:40.998Z,49.98
2022-09-20T14:53:27.734Z,49.94
2022-09-20T14:56:01.574Z,50.17
2022-09-20T14:58:31.113Z,50.02
2022-09-20T15:01:03.054Z,50.01
2022-09-20T15:03:34.427Z,49.99
2022-09-20T15:06:02.387Z,49.95
2022-09-20T15:08:30.742Z,49.98
2022-09-20T15:11:00.378Z,49.69
2022-09-20T15:13:28.390Z,49.71
2022-09-20T15:15:56.777Z,49.91
2022-09-20T15:18:27.363Z,49.53
2022-09-20T15:20:59.914Z,49.68
2022-09-20T15:23:27.930Z,51.81
2022-09-20T15:25:56.973Z,50.66
2022-09-20T15:28:26.742Z,50.99
2022-09-20T15:30:55.067Z,52.03
2022-09-20T15:33:23.311Z,51.24
2022-09-20T15:35:51.338Z,51.16
2022-09-20T15:38:22.729Z,51.92
2022-09-20T15:40:50.834Z,52.58
2022-09-20T15:43:24.201Z,53.40
2022-09-20T15:45:53.993Z,52.81
2022-09-20T15:48:24.014Z,52.97
2022-09-20T15:51:02.263Z,52.91
2022-09-20T15:53:33.620Z,53.31
2022-09-20T15:56:02.514Z,53.74
2022-09-20T15:58:35.916Z,53.38
2022-09-20T16:01:06.277Z,53.63
2022-09-20T16:03:34.930Z,53.30
2022-09-20T16:06:04.895Z,53.10
2022-09-20T16:08:35.153Z,53.27
2022-09-20T16:11:03.140Z,53.36
2022-09-20T16:13:31.370Z,53.31
2022-09-20T16:16:01.597Z,53.39
2022-09-20T16:18:47.928Z,53.08
2022-09-20T16:21:18.574Z,53.15
2022-09-20T16:23:50.876Z,53.13
2022-09-20T16:26:23.332Z,53.00
2022-09-20T16:28:51.634Z,53.18
2022-09-20T16:31:34.826Z,53.07
2022-09-20T16:34:04.951Z,52.87
2022-09-20T16:36:33.352Z,53.06
2022-09-20T16:39:03.339Z,53.15
2022-09-20T16:41:32.420Z,53.04
2022-09-20T16:44:00.467Z,53.99
2022-09-20T16:46:28.610Z,54.40
2022-09-20T16:49:00.250Z,54.21
2022-09-20T16:51:33.310Z,54.34
2022-09-20T16:54:05.148Z,54.34
2022-09-20T16:56:34.881Z,54.26
2022-09-20T16:59:03.889Z,54.26
2022-09-20T17:01:32.746Z,53.91
2022-09-20T17:04:02.989Z,54.01
2022-09-20T17:06:31.231Z,54.12
2022-09-20T17:09:05.609Z,54.01
2022-09-20T17:11:35.906Z,54.03
2022-09-20T17:14:04.905Z,54.02
2022-09-20T17:16:35.043Z,54.02
2022-09-20T17:19:07.370Z,54.12
2022-09-20T17:21:37.226Z,54.18
2022-09-20T17:24:08.880Z,53.77
2022-09-20T17:26:38.775Z,53.87
2022-09-20T17:29:09.949Z,53.93
2022-09-20T17:31:41.623Z,54.22
2022-09-20T17:34:11.671Z,53.34
2022-09-20T17:36:41.208Z,53.17
2022-09-20T17:39:12.688Z,52.26
2022-09-20T17:41:41.945Z,52.64
2022-09-20T17:44:11.837Z,53.22
2022-09-20T17:46:41.509Z,53.33
2022-09-20T17:49:11.279Z,53.15
2022-09-20T17:51:41.140Z,53.15
2022-09-20T17:54:13.757Z,53.14
2022-09-20T17:56:43.555Z,53.26
2022-09-20T17:59:13.037Z,53.33
2022-09-20T18:01:41.835Z,53.46
2022-09-20T18:04:10.827Z,53.18
2022-09-20T18:06:42.193Z,53.21
2022-09-20T18:09:13.166Z,53.51
2022-09-20T18:11:44.150Z,53.44
2022-09-20T18:14:12.978Z,53.43
2022-09-20T18:16:40.987Z,53.66
2022-09-20T18:19:09.926Z,53.73
2022-09-20T18:21:39.801Z,53.92
2022-09-20T18:24:09.514Z,53.63
2022-09-20T18:26:39.728Z,53.43
2022-09-20T18:29:09.555Z,53.73
2022-09-20T18:31:39.065Z,53.51
2022-09-20T18:34:09.185Z,53.69
2022-09-20T18:36:39.444Z,53.01
2022-09-20T18:39:08.411Z,52.94
2022-09-20T18:41:40.933Z,53.21
2022-09-20T18:44:09.075Z,53.32
2022-09-20T18:46:38.900Z,52.71
2022-09-20T18:49:09.366Z,53.67
2022-09-20T18:51:39.897Z,54.48
2022-09-20T18:54:10.219Z,54.70
2022-09-20T18:56:41.779Z,54.41
2022-09-20T18:59:15.741Z,54.53
2022-09-20T19:02:13.653Z,54.47
2022-09-20T19:05:08.470Z,54.51
2022-09-20T19:07:46.375Z,54.54
2022-09-20T19:10:23.722Z,54.57
2022-09-20T19:13:00.291Z,54.60
2022-09-20T19:15:55.144Z,54.72
2022-09-20T19:19:01.066Z,54.43
2022-09-20T19:21:37.282Z,54.66
2022-09-20T19:24:16.845Z,54.77
2022-09-20T19:26:45.658Z,54.83
2022-09-20T19:29:20.094Z,54.75
2022-09-20T19:31:49.738Z,54.76
2022-09-20T19:34:21.530Z,54.61
2022-09-20T19:37:02.038Z,54.86
2022-09-20T19:39:40.109Z,54.60
2022-09-20T19:42:20.029Z,54.94
2022-09-20T19:44:59.712Z,54.63
2022-09-20T19:47:36.744Z,54.93
2022-09-20T19:50:15.875Z,54.72
2022-09-20T19:52:44.735Z,54.93
2022-09-20T19:55:14.337Z,54.58
2022-09-20T19:57:46.930Z,54.78
2022-09-20T20:00:19.442Z,54.53
2022-09-20T20:02:48.629Z,54.53
2022-09-20T20:05:18.829Z,54.36
2022-09-20T20:07:53.563Z,54.25
2022-09-20T20:10:28.939Z,54.41
2022-09-20T20:13:27.662Z,54.35
2022-09-20T20:16:03.774Z,54.18
2022-09-20T20:18:41.346Z,53.90
2022-09-20T20:21:18.397Z,54.19
2022-09-20T20:24:09.367Z,54.03
2022-09-20T20:26:37.312Z,53.72
2022-09-20T20:29:05.754Z,53.68
2022-09-20T20:31:35.882Z,53.56
2022-09-20T20:34:03.874Z,53.73
2022-09-20T20:36:31.941Z,53.57
2022-09-20T20:38:59.974Z,53.60
2022-09-20T20:41:27.977Z,53.42
2022-09-20T20:43:57.185Z,53.53
2022-09-20T20:46:26.087Z,53.31
2022-09-20T20:48:55.539Z,53.44
2022-09-20T20:51:24.283Z,53.36
2022-09-20T20:53:55.098Z,53.25
2022-09-20T20:56:25.710Z,53.13
2022-09-20T20:58:54.220Z,53.07
2022-09-20T21:01:23.872Z,53.10
2022-09-20T21:03:53.551Z,52.97
2022-09-20T21:06:25.170Z,52.83
2022-09-20T21:08:53.461Z,52.75
2022-09-20T21:11:23.375Z,52.98
2022-09-20T21:13:51.585Z,52.67
2022-09-20T21:16:21.555Z,52.78
2022-09-20T21:18:50.808Z,52.84
2022-09-20T21:21:20.373Z,52.65
2022-09-20T21:23:51.298Z,52.68
2022-09-20T21:26:20.685Z,52.59
2022-09-20T21:28:52.091Z,52.37
2022-09-20T21:31:21.948Z,52.60
2022-09-20T21:33:50.111Z,52.54
2022-09-20T21:36:20.471Z,52.37
2022-09-20T21:38:50.084Z,52.36
2022-09-20T21:41:20.115Z,52.34
2022-09-20T21:43:48.927Z,52.49
2022-09-20T21:46:20.295Z,52.44
2022-09-20T21:48:50.135Z,52.29
2022-09-20T21:51:20.417Z,52.32
2022-09-20T21:53:52.742Z,52.24
2022-09-20T21:56:21.144Z,52.17
2022-09-20T21:58:49.076Z,52.26
2022-09-20T22:01:21.487Z,52.21
2022-09-20T22:03:51.812Z,52.05
2022-09-20T22:06:23.408Z,51.93
2022-09-20T22:08:54.260Z,51.89
2022-09-20T22:11:23.092Z,52.05
2022-09-20T22:13:52.784Z,51.89
2022-09-20T22:16:22.671Z,52.09
2022-09-20T22:18:51.382Z,51.71
2022-09-20T22:21:24.605Z,51.74
2022-09-20T22:23:57.655Z,51.81
2022-09-20T22:26:27.792Z,51.63
2022-09-20T22:28:56.304Z,51.73
2022-09-20T22:31:26.661Z,51.65
2022-09-20T22:33:57.131Z,51.50
2022-09-20T22:36:27.862Z,51.63
2022-09-20T22:38:57.831Z,51.53
2022-09-20T22:41:27.749Z,51.56
2022-09-20T22:43:56.650Z,51.42
2022-09-20T22:46:26.509Z,51.35
2022-09-20T22:48:55.166Z,51.43
2022-09-20T22:51:25.599Z,51.39
2022-09-20T22:53:54.564Z,51.24
2022-09-20T22:56:25.831Z,51.28
2022-09-20T22:58:56.618Z,51.31
2022-09-20T23:01:26.596Z,51.36
2022-09-20T23:03:57.287Z,51.13
2022-09-20T23:06:28.163Z,51.04
2022-09-20T23:08:59.150Z,51.30
2022-09-20T23:11:29.381Z,51.36
2022-09-20T23:14:00.640Z,51.37
2022-09-20T23:16:30.991Z,51.23
2022-09-20T23:19:01.225Z,51.05
2022-09-20T23:21:30.464Z,51.30
2022-09-20T23:24:00.063Z,51.12
2022-09-20T23:26:31.607Z,51.02
2022-09-20T23:29:01.441Z,51.08
2022-09-20T23:31:35.247Z,50.99
2022-09-20T23:34:06.080Z,50.82
2022-09-20T23:36:36.000Z,50.90
2022-09-20T23:39:05.590Z,50.96
2022-09-20T23:41:36.753Z,50.77
2022-09-20T23:44:06.683Z,50.90
2022-09-20T23:46:35.627Z,50.68
2022-09-20T23:49:04.471Z,50.71
2022-09-20T23:51:34.181Z,50.79
2022-09-20T23:54:02.915Z,50.71
2022-09-20T23:56:31.434Z,50.79
2022-09-20T23:59:01.117Z,50.63
